Omak, Washington
Current Conditions -  °F | °C
As of 1:53 PM on Friday 19 Dec 2014 (Local Time) from KOMK Reporting Station
Overcast Overcast  
Wind Chill:   Ceiling: 1800
Heat Index:   Visibility: 10mi
Dew Point:   Wind: 7mph
Humidity: 89%   Direction: 210°SSW
Pressure: 29.91"   Gusts: NA
Location:  48.41°N, 119.53°W
Report Text: KOMK 192153Z AUTO 21006KT 10SM OVC018 03/02 A2991 RMK AO2 SLP139 T00330017
Loading
Personal Weather Stations






























Interactive Weather Map New forecast layout! Learn more

10-Day Weather Forecast

Advertisements
Track Severe Weather on mobile